Montana Mines, WV (26586)

5:11 PM EDT on June 30, 2015 (GMT -0400)
East Fairmont | | Change Station
CLOSE
Current Station
Personal Weather Station
Location: Fairmont, WV
Elevation: 1004 ft
Nearby Weather Stations
Active Advisory: Severe Thunderstorm Watch

Elev 1004 ft 39.48 °N, 80.13 °W | Updated 9 minutes ago

Clear
Clear
85.8 °F
Feels Like 87 °F
N
3.7
Wind Variable Wind from West

Today
High -- | Low -- °F
--% Chance of Precip.
Yesterday
High -- | Low -- °F
Precip. -- in
5:56 AM 8:51 PM
Waxing Gibbous, 98% visible
Pressure 29.81 in
Visibility 10.0 miles
Clouds Clear
Heat Index 87 °F
Dew Point 64 °F
Humidity 49%
Rainfall in
Snow Depth Not available.
UV 6 out of 12
Pollen 2.90 out of 12
Air Quality Not available.
Flu Activity Sporadic
METAR KMGW 302053Z 21006KT 10SM CLR 26/16 A2983 RMK AO2 SLP092 T02610156 56016

More Conditions Fewer Conditions

Pressure 29.81 in
Visibility 10.0 miles
Clouds Clear
Heat Index 87 °F
Dew Point 64 °F
Humidity 49%
Rainfall in
Snow Depth Not available.
UV 6 out of 12
Pollen 2.90 out of 12
Air Quality Not available.
Flu Activity Sporadic
METAR KMGW 302053Z 21006KT 10SM CLR 26/16 A2983 RMK AO2 SLP092 T02610156 56016

More Conditions Fewer Conditions

10-Day Weather Forecast

×

Almanac

Astronomy

Jun. 30, 2015 Rise Set
Actual Time
Civil Twilight
Nautical Twilight
Astronomical Twilight
Moon
Length of Visible Light
Length of Day
Tomorrow will be .
, % of the Moon is Illuminated

Today's Extremes

State Highs State Lows

Community

WunderPhotos

Upload Photos

1,834,077 photos uploaded!

WunderBlogs® & News

Nearby

Air Quality

  Air Quality AQ Index Pollutant
Not available.

Snow Depth

Station Depth Elevation

Earthquake Activity

City Distance Mag. Time & Date
Minimum magnitude displayed is 2.5.

Coastal Water Temperatures

Place Temperature

Stations

Nearby Weather Stations

Station Location Temp. Windchill Dew Point Humidity Wind Precip. Elev Updated Type
                   
Severe Thunderstorm Watch
Statement as of 5:03 PM EDT on June 30, 2015

Severe Thunderstorm Watch 371 remains in effect until 800 PM EDT

WV
. West Virginia counties included are

Barbour Brooke Doddridge
Hancock Harrison Jackson
Marion Marshall Mason
Monongalia Ohio Pleasants
Preston Ritchie Taylor
Tucker Tyler Wetzel
Wirt wood